OINR  Ramsar Airport

Add Bookmark

Iran

Status IATA
Operational RZR
Latitude Longitude
36° 54' 35" N 50° 40' 46" E
36.909901 50.679600
Local (DST + 5) UTC (GMT + 4)
Sep 3, 2014 11:28 Sep 3, 2014 06:58
Sunrise-Sunset Local UTC
Begin Civil Twilight 06:12 01:42
Sunrise 06:38 02:08
Sunset 07:34 15:04
End Civil Twilight 08:01 15:31

Current Weather

METAR Observed VFR
OINR 030600Z 01006KT 9999 FEW020CB SCT027 29/24 Q1011 Wed, Sep 3, 2014 @ 06:00 UTC
(58 Minutes ago)
Visual Flight Rules
Wind Visibility Clouds Conditions
010° at 6 knots (11 kph) 10 km or more
  • Few at 2,000' AGL
  • Scattered at 2,700' AGL
  • No significant weather
Temperatures Readings Precipitation
Current Temp 29°C (84°F)
Dewpoint 24°C (75°F)
Heat Index 33°C (92°F)
Humidity 74%
Altimeter 29.85"Hg
Sea Level Pressure 1011mb
None Recorded

Additional weather within a 92.6km radius of OINR

Map ICAO Location
OINN 75km E (111°)

24 Hour Weather History

Loading
-

24 Hour Weather Graphs

Loading
-

CheckWX.com is intended as a tool to help pilots better visualize weather data. It is not intended as a substitute for an official weather briefing obtained from a Flight Service Station. CheckWX.com does not meet the FAA requirements for an official pre-flight weather briefing. Therefore, it's important that pilots still call and obtain an official FSS pre-flight weather briefing.